sensor_id;sensor_type;location;lat;lon;timestamp;temperature;humidity
76757;DHT22;65696;51.426;6.968;2022-12-05T00:00:07;13.90;39.80
76757;DHT22;65696;51.426;6.968;2022-12-05T00:02:33;14.00;40.10
76757;DHT22;65696;51.426;6.968;2022-12-05T00:05:00;14.00;39.80
76757;DHT22;65696;51.426;6.968;2022-12-05T00:07:25;14.00;39.90
76757;DHT22;65696;51.426;6.968;2022-12-05T00:09:52;14.00;39.90
76757;DHT22;65696;51.426;6.968;2022-12-05T00:12:17;13.90;39.60
76757;DHT22;65696;51.426;6.968;2022-12-05T00:14:43;13.90;39.60
76757;DHT22;65696;51.426;6.968;2022-12-05T00:17:08;13.90;39.80
76757;DHT22;65696;51.426;6.968;2022-12-05T00:19:34;13.90;39.60
76757;DHT22;65696;51.426;6.968;2022-12-05T00:22:00;13.90;39.60
76757;DHT22;65696;51.426;6.968;2022-12-05T00:24:26;13.90;39.90
76757;DHT22;65696;51.426;6.968;2022-12-05T00:26:51;13.90;39.70
76757;DHT22;65696;51.426;6.968;2022-12-05T00:29:17;13.80;39.80
76757;DHT22;65696;51.426;6.968;2022-12-05T00:31:42;13.90;39.70
76757;DHT22;65696;51.426;6.968;2022-12-05T00:34:08;13.90;39.70
76757;DHT22;65696;51.426;6.968;2022-12-05T00:36:34;14.00;39.50
76757;DHT22;65696;51.426;6.968;2022-12-05T00:39:02;13.80;39.40
76757;DHT22;65696;51.426;6.968;2022-12-05T00:41:28;13.90;39.40
76757;DHT22;65696;51.426;6.968;2022-12-05T00:43:54;13.80;39.80
76757;DHT22;65696;51.426;6.968;2022-12-05T00:46:20;13.90;39.90
76757;DHT22;65696;51.426;6.968;2022-12-05T00:48:46;13.90;40.00
76757;DHT22;65696;51.426;6.968;2022-12-05T00:51:12;14.00;39.90
76757;DHT22;65696;51.426;6.968;2022-12-05T00:53:38;14.00;39.70
76757;DHT22;65696;51.426;6.968;2022-12-05T00:56:06;14.00;39.70
76757;DHT22;65696;51.426;6.968;2022-12-05T00:58:32;13.80;39.50
76757;DHT22;65696;51.426;6.968;2022-12-05T01:01:03;13.80;39.60
76757;DHT22;65696;51.426;6.968;2022-12-05T01:03:29;13.80;39.90
76757;DHT22;65696;51.426;6.968;2022-12-05T01:05:55;13.80;39.70
76757;DHT22;65696;51.426;6.968;2022-12-05T01:08:22;13.80;40.30
76757;DHT22;65696;51.426;6.968;2022-12-05T01:10:51;13.80;39.90
76757;DHT22;65696;51.426;6.968;2022-12-05T01:13:18;13.90;40.20
76757;DHT22;65696;51.426;6.968;2022-12-05T01:15:43;13.90;39.60
76757;DHT22;65696;51.426;6.968;2022-12-05T01:18:09;13.90;39.80
76757;DHT22;65696;51.426;6.968;2022-12-05T01:20:37;13.90;39.60
76757;DHT22;65696;51.426;6.968;2022-12-05T01:23:03;13.90;39.50
76757;DHT22;65696;51.426;6.968;2022-12-05T01:25:28;13.80;39.70
76757;DHT22;65696;51.426;6.968;2022-12-05T01:27:53;13.80;39.50
76757;DHT22;65696;51.426;6.968;2022-12-05T01:30:20;13.80;39.90
76757;DHT22;65696;51.426;6.968;2022-12-05T01:32:46;13.80;39.80
76757;DHT22;65696;51.426;6.968;2022-12-05T01:35:11;13.80;39.70
76757;DHT22;65696;51.426;6.968;2022-12-05T01:37:37;13.90;40.00
76757;DHT22;65696;51.426;6.968;2022-12-05T01:40:02;13.90;39.80
76757;DHT22;65696;51.426;6.968;2022-12-05T01:42:28;13.90;39.90
76757;DHT22;65696;51.426;6.968;2022-12-05T01:44:58;13.90;40.00
76757;DHT22;65696;51.426;6.968;2022-12-05T01:47:26;13.90;40.20
76757;DHT22;65696;51.426;6.968;2022-12-05T01:49:52;13.90;40.00
76757;DHT22;65696;51.426;6.968;2022-12-05T01:52:18;13.90;39.90
76757;DHT22;65696;51.426;6.968;2022-12-05T01:54:46;13.90;40.00
76757;DHT22;65696;51.426;6.968;2022-12-05T01:57:12;13.90;39.90
76757;DHT22;65696;51.426;6.968;2022-12-05T01:59:40;13.90;40.10
76757;DHT22;65696;51.426;6.968;2022-12-05T02:02:06;13.90;40.10
76757;DHT22;65696;51.426;6.968;2022-12-05T02:04:34;13.80;40.10
76757;DHT22;65696;51.426;6.968;2022-12-05T02:07:01;13.90;40.10
76757;DHT22;65696;51.426;6.968;2022-12-05T02:09:27;13.90;40.40
76757;DHT22;65696;51.426;6.968;2022-12-05T02:11:53;14.00;40.00
76757;DHT22;65696;51.426;6.968;2022-12-05T02:14:21;13.90;40.00
76757;DHT22;65696;51.426;6.968;2022-12-05T02:16:53;13.90;39.80
76757;DHT22;65696;51.426;6.968;2022-12-05T02:19:27;13.90;39.80
76757;DHT22;65696;51.426;6.968;2022-12-05T02:22:02;13.90;40.10
76757;DHT22;65696;51.426;6.968;2022-12-05T02:27:23;13.90;40.00
76757;DHT22;65696;51.426;6.968;2022-12-05T02:30:02;13.90;40.40
76757;DHT22;65696;51.426;6.968;2022-12-05T02:32:34;13.90;39.90
76757;DHT22;65696;51.426;6.968;2022-12-05T02:35:02;13.90;40.30
76757;DHT22;65696;51.426;6.968;2022-12-05T02:37:34;13.90;39.90
76757;DHT22;65696;51.426;6.968;2022-12-05T02:40:04;13.90;40.20
76757;DHT22;65696;51.426;6.968;2022-12-05T02:42:35;14.00;39.90
76757;DHT22;65696;51.426;6.968;2022-12-05T02:45:06;14.00;40.50
76757;DHT22;65696;51.426;6.968;2022-12-05T02:47:32;14.10;40.00
76757;DHT22;65696;51.426;6.968;2022-12-05T02:49:59;13.90;39.60
76757;DHT22;65696;51.426;6.968;2022-12-05T02:52:25;13.90;40.00
76757;DHT22;65696;51.426;6.968;2022-12-05T02:54:52;13.80;40.50
76757;DHT22;65696;51.426;6.968;2022-12-05T02:57:18;13.90;40.20
76757;DHT22;65696;51.426;6.968;2022-12-05T02:59:44;14.00;40.60
76757;DHT22;65696;51.426;6.968;2022-12-05T03:02:21;14.00;40.20
76757;DHT22;65696;51.426;6.968;2022-12-05T03:04:47;14.00;40.50
76757;DHT22;65696;51.426;6.968;2022-12-05T03:07:12;14.10;40.40
76757;DHT22;65696;51.426;6.968;2022-12-05T03:09:39;14.00;40.00
76757;DHT22;65696;51.426;6.968;2022-12-05T03:12:07;13.90;40.00
76757;DHT22;65696;51.426;6.968;2022-12-05T03:14:35;13.90;40.00
76757;DHT22;65696;51.426;6.968;2022-12-05T03:17:03;13.80;40.20
76757;DHT22;65696;51.426;6.968;2022-12-05T03:19:33;13.90;40.10
76757;DHT22;65696;51.426;6.968;2022-12-05T03:22:02;13.90;39.90
76757;DHT22;65696;51.426;6.968;2022-12-05T03:24:30;13.80;39.70
76757;DHT22;65696;51.426;6.968;2022-12-05T03:27:00;13.80;40.10
76757;DHT22;65696;51.426;6.968;2022-12-05T03:29:29;13.80;39.90
76757;DHT22;65696;51.426;6.968;2022-12-05T03:31:59;13.80;39.90
76757;DHT22;65696;51.426;6.968;2022-12-05T03:34:29;13.70;39.90
76757;DHT22;65696;51.426;6.968;2022-12-05T03:36:58;13.70;39.70
76757;DHT22;65696;51.426;6.968;2022-12-05T03:39:29;13.70;39.50
76757;DHT22;65696;51.426;6.968;2022-12-05T03:41:58;13.60;39.60
76757;DHT22;65696;51.426;6.968;2022-12-05T03:44:27;13.60;39.70
76757;DHT22;65696;51.426;6.968;2022-12-05T03:46:54;13.60;39.90
76757;DHT22;65696;51.426;6.968;2022-12-05T03:49:23;13.60;39.70
76757;DHT22;65696;51.426;6.968;2022-12-05T03:51:52;13.60;40.20
76757;DHT22;65696;51.426;6.968;2022-12-05T03:54:22;13.70;40.00
76757;DHT22;65696;51.426;6.968;2022-12-05T03:56:51;13.80;39.80
76757;DHT22;65696;51.426;6.968;2022-12-05T03:59:18;13.70;39.80
76757;DHT22;65696;51.426;6.968;2022-12-05T04:01:47;13.70;40.00
76757;DHT22;65696;51.426;6.968;2022-12-05T04:04:15;13.70;40.00
76757;DHT22;65696;51.426;6.968;2022-12-05T04:06:41;13.70;39.90
76757;DHT22;65696;51.426;6.968;2022-12-05T04:09:09;13.70;39.80
76757;DHT22;65696;51.426;6.968;2022-12-05T04:11:38;13.70;40.10
76757;DHT22;65696;51.426;6.968;2022-12-05T04:14:05;13.70;40.00
76757;DHT22;65696;51.426;6.968;2022-12-05T04:16:34;13.70;39.90
76757;DHT22;65696;51.426;6.968;2022-12-05T04:19:03;13.70;40.30
76757;DHT22;65696;51.426;6.968;2022-12-05T04:21:30;13.70;40.20
76757;DHT22;65696;51.426;6.968;2022-12-05T04:23:59;13.80;40.10
76757;DHT22;65696;51.426;6.968;2022-12-05T04:26:26;13.70;40.00
76757;DHT22;65696;51.426;6.968;2022-12-05T04:28:56;13.70;39.90
76757;DHT22;65696;51.426;6.968;2022-12-05T04:31:23;13.70;40.00
76757;DHT22;65696;51.426;6.968;2022-12-05T04:33:50;13.80;40.00
76757;DHT22;65696;51.426;6.968;2022-12-05T04:36:18;13.80;40.20
76757;DHT22;65696;51.426;6.968;2022-12-05T04:38:45;13.90;40.30
76757;DHT22;65696;51.426;6.968;2022-12-05T04:41:13;13.80;40.30
76757;DHT22;65696;51.426;6.968;2022-12-05T04:43:40;13.90;40.00
76757;DHT22;65696;51.426;6.968;2022-12-05T04:46:08;13.80;40.00
76757;DHT22;65696;51.426;6.968;2022-12-05T04:48:34;13.80;40.10
76757;DHT22;65696;51.426;6.968;2022-12-05T04:51:01;13.80;40.20
76757;DHT22;65696;51.426;6.968;2022-12-05T04:53:28;13.80;40.30
76757;DHT22;65696;51.426;6.968;2022-12-05T04:55:56;13.80;40.00
76757;DHT22;65696;51.426;6.968;2022-12-05T04:58:23;13.80;40.20
76757;DHT22;65696;51.426;6.968;2022-12-05T05:00:50;13.80;40.40
76757;DHT22;65696;51.426;6.968;2022-12-05T05:03:20;13.80;40.10
76757;DHT22;65696;51.426;6.968;2022-12-05T05:05:48;13.80;40.10
76757;DHT22;65696;51.426;6.968;2022-12-05T05:08:16;13.80;40.00
76757;DHT22;65696;51.426;6.968;2022-12-05T05:10:43;13.70;40.30
76757;DHT22;65696;51.426;6.968;2022-12-05T05:13:09;13.70;39.90
76757;DHT22;65696;51.426;6.968;2022-12-05T05:15:35;13.70;40.00
76757;DHT22;65696;51.426;6.968;2022-12-05T05:18:00;13.70;39.90
76757;DHT22;65696;51.426;6.968;2022-12-05T05:20:27;13.80;40.50
76757;DHT22;65696;51.426;6.968;2022-12-05T05:22:53;13.80;40.20
76757;DHT22;65696;51.426;6.968;2022-12-05T05:25:19;13.80;40.40
76757;DHT22;65696;51.426;6.968;2022-12-05T05:27:46;13.80;40.50
76757;DHT22;65696;51.426;6.968;2022-12-05T05:30:12;13.80;40.00
76757;DHT22;65696;51.426;6.968;2022-12-05T05:32:37;13.90;40.50
76757;DHT22;65696;51.426;6.968;2022-12-05T05:35:03;13.90;40.50
76757;DHT22;65696;51.426;6.968;2022-12-05T05:37:30;13.90;39.90
76757;DHT22;65696;51.426;6.968;2022-12-05T05:39:55;13.90;40.30
76757;DHT22;65696;51.426;6.968;2022-12-05T05:42:21;13.80;40.20
76757;DHT22;65696;51.426;6.968;2022-12-05T05:44:46;13.80;40.40
76757;DHT22;65696;51.426;6.968;2022-12-05T05:47:11;13.80;39.90
76757;DHT22;65696;51.426;6.968;2022-12-05T05:49:37;13.90;40.30
76757;DHT22;65696;51.426;6.968;2022-12-05T05:52:02;13.90;40.20
76757;DHT22;65696;51.426;6.968;2022-12-05T05:54:29;13.90;40.20
76757;DHT22;65696;51.426;6.968;2022-12-05T05:56:55;13.80;40.30
76757;DHT22;65696;51.426;6.968;2022-12-05T05:59:20;13.80;40.60
76757;DHT22;65696;51.426;6.968;2022-12-05T06:01:46;13.80;40.30
76757;DHT22;65696;51.426;6.968;2022-12-05T06:04:11;14.00;40.50
76757;DHT22;65696;51.426;6.968;2022-12-05T06:06:37;14.00;40.60
76757;DHT22;65696;51.426;6.968;2022-12-05T06:09:04;14.00;40.50
76757;DHT22;65696;51.426;6.968;2022-12-05T06:11:31;14.10;40.80
76757;DHT22;65696;51.426;6.968;2022-12-05T06:13:58;14.10;40.90
76757;DHT22;65696;51.426;6.968;2022-12-05T06:16:24;14.10;41.00
76757;DHT22;65696;51.426;6.968;2022-12-05T06:18:50;14.20;40.80
76757;DHT22;65696;51.426;6.968;2022-12-05T06:21:15;14.00;40.40
76757;DHT22;65696;51.426;6.968;2022-12-05T06:23:41;14.10;40.70
76757;DHT22;65696;51.426;6.968;2022-12-05T06:26:09;14.10;40.20
76757;DHT22;65696;51.426;6.968;2022-12-05T06:28:36;14.10;40.70
76757;DHT22;65696;51.426;6.968;2022-12-05T06:31:05;14.10;40.10
76757;DHT22;65696;51.426;6.968;2022-12-05T06:33:30;14.20;40.80
76757;DHT22;65696;51.426;6.968;2022-12-05T06:36:05;14.10;40.50
76757;DHT22;65696;51.426;6.968;2022-12-05T06:38:31;14.10;40.60
76757;DHT22;65696;51.426;6.968;2022-12-05T06:40:57;14.10;40.70
76757;DHT22;65696;51.426;6.968;2022-12-05T06:43:22;14.20;40.70
76757;DHT22;65696;51.426;6.968;2022-12-05T06:45:49;14.20;41.00
76757;DHT22;65696;51.426;6.968;2022-12-05T06:48:14;14.20;41.10
76757;DHT22;65696;51.426;6.968;2022-12-05T06:50:44;14.10;41.00
76757;DHT22;65696;51.426;6.968;2022-12-05T06:53:11;14.20;41.20
76757;DHT22;65696;51.426;6.968;2022-12-05T06:55:37;14.10;40.90
76757;DHT22;65696;51.426;6.968;2022-12-05T06:58:02;14.20;41.20
76757;DHT22;65696;51.426;6.968;2022-12-05T07:00:27;14.10;41.30
76757;DHT22;65696;51.426;6.968;2022-12-05T07:02:54;14.20;41.50
76757;DHT22;65696;51.426;6.968;2022-12-05T07:05:20;14.20;41.10
76757;DHT22;65696;51.426;6.968;2022-12-05T07:07:45;14.20;41.40
76757;DHT22;65696;51.426;6.968;2022-12-05T07:10:11;14.20;41.30
76757;DHT22;65696;51.426;6.968;2022-12-05T07:12:37;14.30;41.00
76757;DHT22;65696;51.426;6.968;2022-12-05T07:15:02;14.20;41.30
76757;DHT22;65696;51.426;6.968;2022-12-05T07:17:28;14.20;41.60
76757;DHT22;65696;51.426;6.968;2022-12-05T07:19:55;14.00;41.30
76757;DHT22;65696;51.426;6.968;2022-12-05T07:22:20;14.20;41.40
76757;DHT22;65696;51.426;6.968;2022-12-05T07:24:46;14.20;41.10
76757;DHT22;65696;51.426;6.968;2022-12-05T07:27:12;14.30;41.50
76757;DHT22;65696;51.426;6.968;2022-12-05T07:29:38;14.30;41.30
76757;DHT22;65696;51.426;6.968;2022-12-05T07:32:03;14.30;41.70
76757;DHT22;65696;51.426;6.968;2022-12-05T07:34:29;14.30;41.40
76757;DHT22;65696;51.426;6.968;2022-12-05T07:36:56;14.30;41.20
76757;DHT22;65696;51.426;6.968;2022-12-05T07:39:21;14.30;41.20
76757;DHT22;65696;51.426;6.968;2022-12-05T07:41:47;14.30;41.40
76757;DHT22;65696;51.426;6.968;2022-12-05T07:44:12;14.20;41.50
76757;DHT22;65696;51.426;6.968;2022-12-05T07:46:38;14.20;41.30
76757;DHT22;65696;51.426;6.968;2022-12-05T07:49:03;14.20;42.10
76757;DHT22;65696;51.426;6.968;2022-12-05T07:51:29;14.20;41.40
76757;DHT22;65696;51.426;6.968;2022-12-05T07:53:57;14.30;41.70
76757;DHT22;65696;51.426;6.968;2022-12-05T07:56:22;14.30;41.50
76757;DHT22;65696;51.426;6.968;2022-12-05T07:58:48;14.20;41.30
76757;DHT22;65696;51.426;6.968;2022-12-05T08:01:14;14.10;41.50
76757;DHT22;65696;51.426;6.968;2022-12-05T08:03:40;14.20;41.40
76757;DHT22;65696;51.426;6.968;2022-12-05T08:06:07;14.20;41.50
76757;DHT22;65696;51.426;6.968;2022-12-05T08:08:32;14.20;41.60
76757;DHT22;65696;51.426;6.968;2022-12-05T08:11:02;14.20;41.50
76757;DHT22;65696;51.426;6.968;2022-12-05T08:13:28;14.20;41.60
76757;DHT22;65696;51.426;6.968;2022-12-05T08:15:54;14.10;41.60
76757;DHT22;65696;51.426;6.968;2022-12-05T08:18:19;14.10;41.80
76757;DHT22;65696;51.426;6.968;2022-12-05T08:20:45;14.20;41.80
76757;DHT22;65696;51.426;6.968;2022-12-05T08:23:10;14.20;42.30
76757;DHT22;65696;51.426;6.968;2022-12-05T08:25:35;14.20;41.70
76757;DHT22;65696;51.426;6.968;2022-12-05T08:28:02;14.30;41.60
76757;DHT22;65696;51.426;6.968;2022-12-05T08:30:28;14.10;41.60
76757;DHT22;65696;51.426;6.968;2022-12-05T08:32:53;14.20;41.60
76757;DHT22;65696;51.426;6.968;2022-12-05T08:35:19;14.20;41.60
76757;DHT22;65696;51.426;6.968;2022-12-05T08:37:44;14.20;42.20
76757;DHT22;65696;51.426;6.968;2022-12-05T08:40:10;14.20;41.40
76757;DHT22;65696;51.426;6.968;2022-12-05T08:42:35;14.20;41.60
76757;DHT22;65696;51.426;6.968;2022-12-05T08:47:40;14.30;41.40
76757;DHT22;65696;51.426;6.968;2022-12-05T08:50:06;14.20;41.60
76757;DHT22;65696;51.426;6.968;2022-12-05T08:52:31;14.30;41.80
76757;DHT22;65696;51.426;6.968;2022-12-05T08:54:57;14.30;41.80
76757;DHT22;65696;51.426;6.968;2022-12-05T08:57:22;14.30;41.70
76757;DHT22;65696;51.426;6.968;2022-12-05T08:59:48;14.20;41.60
76757;DHT22;65696;51.426;6.968;2022-12-05T09:02:13;14.20;41.60
76757;DHT22;65696;51.426;6.968;2022-12-05T09:04:40;14.20;41.50
76757;DHT22;65696;51.426;6.968;2022-12-05T09:07:05;14.10;41.90
76757;DHT22;65696;51.426;6.968;2022-12-05T09:09:31;14.10;41.80
76757;DHT22;65696;51.426;6.968;2022-12-05T09:11:56;14.10;41.50
76757;DHT22;65696;51.426;6.968;2022-12-05T09:14:22;14.10;41.60
76757;DHT22;65696;51.426;6.968;2022-12-05T09:16:47;14.10;41.60
76757;DHT22;65696;51.426;6.968;2022-12-05T09:19:13;14.10;41.80
76757;DHT22;65696;51.426;6.968;2022-12-05T09:21:40;14.10;41.60
76757;DHT22;65696;51.426;6.968;2022-12-05T09:24:06;14.20;41.80
76757;DHT22;65696;51.426;6.968;2022-12-05T09:26:33;14.20;41.60
76757;DHT22;65696;51.426;6.968;2022-12-05T09:28:59;14.20;41.60
76757;DHT22;65696;51.426;6.968;2022-12-05T09:31:25;14.20;41.60
76757;DHT22;65696;51.426;6.968;2022-12-05T09:33:51;14.10;41.60
76757;DHT22;65696;51.426;6.968;2022-12-05T09:36:17;14.10;41.90
76757;DHT22;65696;51.426;6.968;2022-12-05T09:38:45;14.10;41.70
76757;DHT22;65696;51.426;6.968;2022-12-05T09:41:13;14.10;41.80
76757;DHT22;65696;51.426;6.968;2022-12-05T09:43:42;14.20;42.00
76757;DHT22;65696;51.426;6.968;2022-12-05T09:46:12;14.20;41.70
76757;DHT22;65696;51.426;6.968;2022-12-05T09:48:39;14.20;41.70
76757;DHT22;65696;51.426;6.968;2022-12-05T09:51:06;14.10;42.00
76757;DHT22;65696;51.426;6.968;2022-12-05T09:53:33;14.10;41.90
76757;DHT22;65696;51.426;6.968;2022-12-05T09:56:03;14.10;41.80
76757;DHT22;65696;51.426;6.968;2022-12-05T09:58:33;14.20;41.80
76757;DHT22;65696;51.426;6.968;2022-12-05T10:01:02;14.10;42.10
76757;DHT22;65696;51.426;6.968;2022-12-05T10:03:30;14.20;41.90
76757;DHT22;65696;51.426;6.968;2022-12-05T10:06:00;14.20;42.20
76757;DHT22;65696;51.426;6.968;2022-12-05T10:08:31;14.20;42.10
76757;DHT22;65696;51.426;6.968;2022-12-05T10:10:59;14.20;42.10
76757;DHT22;65696;51.426;6.968;2022-12-05T10:13:39;14.20;42.10
76757;DHT22;65696;51.426;6.968;2022-12-05T10:16:09;14.30;42.10
76757;DHT22;65696;51.426;6.968;2022-12-05T10:18:36;14.20;42.80
76757;DHT22;65696;51.426;6.968;2022-12-05T10:21:04;14.30;42.30
76757;DHT22;65696;51.426;6.968;2022-12-05T10:23:36;14.30;42.20
76757;DHT22;65696;51.426;6.968;2022-12-05T10:26:03;14.30;42.30
76757;DHT22;65696;51.426;6.968;2022-12-05T10:28:30;14.40;42.40
76757;DHT22;65696;51.426;6.968;2022-12-05T10:30:59;14.30;42.20
76757;DHT22;65696;51.426;6.968;2022-12-05T10:33:32;14.40;42.30
76757;DHT22;65696;51.426;6.968;2022-12-05T10:36:00;14.40;42.10
76757;DHT22;65696;51.426;6.968;2022-12-05T10:38:26;14.40;42.30
76757;DHT22;65696;51.426;6.968;2022-12-05T10:40:53;14.40;42.40
76757;DHT22;65696;51.426;6.968;2022-12-05T10:43:22;14.50;42.10
76757;DHT22;65696;51.426;6.968;2022-12-05T10:45:50;14.50;42.30
76757;DHT22;65696;51.426;6.968;2022-12-05T10:48:18;14.50;42.20
76757;DHT22;65696;51.426;6.968;2022-12-05T10:50:44;14.50;42.40
76757;DHT22;65696;51.426;6.968;2022-12-05T10:53:12;14.50;42.20
76757;DHT22;65696;51.426;6.968;2022-12-05T10:55:40;14.50;42.30
76757;DHT22;65696;51.426;6.968;2022-12-05T10:58:09;14.50;42.40
76757;DHT22;65696;51.426;6.968;2022-12-05T11:00:35;14.50;42.30
76757;DHT22;65696;51.426;6.968;2022-12-05T11:03:01;14.50;42.20
76757;DHT22;65696;51.426;6.968;2022-12-05T11:05:30;14.70;42.00
76757;DHT22;65696;51.426;6.968;2022-12-05T11:07:56;14.50;42.20
76757;DHT22;65696;51.426;6.968;2022-12-05T11:10:24;14.40;42.50
76757;DHT22;65696;51.426;6.968;2022-12-05T11:12:49;14.40;42.50
76757;DHT22;65696;51.426;6.968;2022-12-05T11:15:19;14.50;42.50
76757;DHT22;65696;51.426;6.968;2022-12-05T11:17:45;14.50;42.30
76757;DHT22;65696;51.426;6.968;2022-12-05T11:22:53;14.40;42.40
76757;DHT22;65696;51.426;6.968;2022-12-05T11:25:22;14.40;42.40
76757;DHT22;65696;51.426;6.968;2022-12-05T11:27:48;14.50;42.50
76757;DHT22;65696;51.426;6.968;2022-12-05T11:30:15;14.40;42.50
76757;DHT22;65696;51.426;6.968;2022-12-05T11:32:42;14.40;42.50
76757;DHT22;65696;51.426;6.968;2022-12-05T11:35:08;14.40;42.50
76757;DHT22;65696;51.426;6.968;2022-12-05T11:37:42;14.40;42.60
76757;DHT22;65696;51.426;6.968;2022-12-05T11:40:13;14.40;42.50
76757;DHT22;65696;51.426;6.968;2022-12-05T11:42:40;14.40;42.50
76757;DHT22;65696;51.426;6.968;2022-12-05T11:48:01;14.40;42.50
76757;DHT22;65696;51.426;6.968;2022-12-05T11:50:32;14.30;42.60
76757;DHT22;65696;51.426;6.968;2022-12-05T11:53:05;14.40;42.60
76757;DHT22;65696;51.426;6.968;2022-12-05T11:55:36;14.40;42.60
76757;DHT22;65696;51.426;6.968;2022-12-05T11:58:12;14.40;42.50
76757;DHT22;65696;51.426;6.968;2022-12-05T12:00:40;14.40;42.50
76757;DHT22;65696;51.426;6.968;2022-12-05T12:05:53;14.40;42.50
76757;DHT22;65696;51.426;6.968;2022-12-05T12:08:22;14.40;42.50
76757;DHT22;65696;51.426;6.968;2022-12-05T12:10:50;14.50;42.50
76757;DHT22;65696;51.426;6.968;2022-12-05T12:13:23;14.50;42.30
76757;DHT22;65696;51.426;6.968;2022-12-05T12:15:56;14.50;42.30
76757;DHT22;65696;51.426;6.968;2022-12-05T12:18:28;14.50;42.40
76757;DHT22;65696;51.426;6.968;2022-12-05T12:21:02;14.50;42.40
76757;DHT22;65696;51.426;6.968;2022-12-05T12:23:36;14.50;42.50
76757;DHT22;65696;51.426;6.968;2022-12-05T12:26:06;14.50;42.40
76757;DHT22;65696;51.426;6.968;2022-12-05T12:28:36;14.50;42.30
76757;DHT22;65696;51.426;6.968;2022-12-05T12:31:11;14.50;42.40
76757;DHT22;65696;51.426;6.968;2022-12-05T12:33:39;14.50;42.30
76757;DHT22;65696;51.426;6.968;2022-12-05T12:36:10;14.40;42.40
76757;DHT22;65696;51.426;6.968;2022-12-05T12:38:42;14.40;42.30
76757;DHT22;65696;51.426;6.968;2022-12-05T12:41:13;14.40;42.40
76757;DHT22;65696;51.426;6.968;2022-12-05T12:43:43;14.40;42.50
76757;DHT22;65696;51.426;6.968;2022-12-05T12:46:13;14.40;42.40
76757;DHT22;65696;51.426;6.968;2022-12-05T12:48:45;14.50;42.40
76757;DHT22;65696;51.426;6.968;2022-12-05T12:51:14;14.40;42.30
76757;DHT22;65696;51.426;6.968;2022-12-05T12:53:46;14.40;42.30
76757;DHT22;65696;51.426;6.968;2022-12-05T12:56:17;14.40;42.30
76757;DHT22;65696;51.426;6.968;2022-12-05T12:58:49;14.40;42.30
76757;DHT22;65696;51.426;6.968;2022-12-05T13:01:17;14.40;42.20
76757;DHT22;65696;51.426;6.968;2022-12-05T13:03:48;14.40;42.80
76757;DHT22;65696;51.426;6.968;2022-12-05T13:06:17;14.40;42.20
76757;DHT22;65696;51.426;6.968;2022-12-05T13:08:46;14.40;42.10
76757;DHT22;65696;51.426;6.968;2022-12-05T13:11:13;14.40;42.20
76757;DHT22;65696;51.426;6.968;2022-12-05T13:13:41;14.40;42.20
76757;DHT22;65696;51.426;6.968;2022-12-05T13:16:09;14.40;42.00
76757;DHT22;65696;51.426;6.968;2022-12-05T13:18:37;14.40;42.20
76757;DHT22;65696;51.426;6.968;2022-12-05T13:21:04;14.40;42.20
76757;DHT22;65696;51.426;6.968;2022-12-05T13:23:30;14.40;42.20
76757;DHT22;65696;51.426;6.968;2022-12-05T13:25:57;14.30;42.20
76757;DHT22;65696;51.426;6.968;2022-12-05T13:28:28;14.30;42.20
76757;DHT22;65696;51.426;6.968;2022-12-05T13:30:56;14.30;42.00
76757;DHT22;65696;51.426;6.968;2022-12-05T13:33:22;14.40;42.30
76757;DHT22;65696;51.426;6.968;2022-12-05T13:35:49;14.40;42.10
76757;DHT22;65696;51.426;6.968;2022-12-05T13:38:19;14.40;42.20
76757;DHT22;65696;51.426;6.968;2022-12-05T13:40:49;14.40;41.90
76757;DHT22;65696;51.426;6.968;2022-12-05T13:43:15;14.40;42.10
76757;DHT22;65696;51.426;6.968;2022-12-05T13:45:42;14.40;42.10
76757;DHT22;65696;51.426;6.968;2022-12-05T13:48:19;14.40;42.00
76757;DHT22;65696;51.426;6.968;2022-12-05T13:50:48;14.40;42.10
76757;DHT22;65696;51.426;6.968;2022-12-05T13:53:25;14.40;42.20
76757;DHT22;65696;51.426;6.968;2022-12-05T13:55:56;14.30;41.90
76757;DHT22;65696;51.426;6.968;2022-12-05T13:58:35;14.30;42.00
76757;DHT22;65696;51.426;6.968;2022-12-05T14:03:54;14.40;41.80
76757;DHT22;65696;51.426;6.968;2022-12-05T14:06:27;14.40;42.00
76757;DHT22;65696;51.426;6.968;2022-12-05T14:09:26;14.30;41.90
76757;DHT22;65696;51.426;6.968;2022-12-05T14:17:15;14.30;42.00
76757;DHT22;65696;51.426;6.968;2022-12-05T14:19:57;14.30;41.80
76757;DHT22;65696;51.426;6.968;2022-12-05T14:22:31;14.30;42.00
76757;DHT22;65696;51.426;6.968;2022-12-05T14:25:02;14.30;42.20
76757;DHT22;65696;51.426;6.968;2022-12-05T14:27:35;14.30;42.00
76757;DHT22;65696;51.426;6.968;2022-12-05T14:30:11;14.30;41.90
76757;DHT22;65696;51.426;6.968;2022-12-05T14:32:41;14.30;41.80
76757;DHT22;65696;51.426;6.968;2022-12-05T14:35:11;14.40;42.00
76757;DHT22;65696;51.426;6.968;2022-12-05T14:37:38;14.40;42.00
76757;DHT22;65696;51.426;6.968;2022-12-05T14:40:15;14.40;42.00
76757;DHT22;65696;51.426;6.968;2022-12-05T14:42:42;14.40;41.90
76757;DHT22;65696;51.426;6.968;2022-12-05T14:47:52;14.40;41.90
76757;DHT22;65696;51.426;6.968;2022-12-05T14:50:33;14.30;42.00
76757;DHT22;65696;51.426;6.968;2022-12-05T14:53:12;14.30;42.20
76757;DHT22;65696;51.426;6.968;2022-12-05T14:55:38;14.30;42.10
76757;DHT22;65696;51.426;6.968;2022-12-05T14:58:04;14.30;42.30
76757;DHT22;65696;51.426;6.968;2022-12-05T15:00:34;14.40;42.30
76757;DHT22;65696;51.426;6.968;2022-12-05T15:03:01;14.40;42.10
76757;DHT22;65696;51.426;6.968;2022-12-05T15:05:29;14.30;42.10
76757;DHT22;65696;51.426;6.968;2022-12-05T15:07:55;14.30;42.00
76757;DHT22;65696;51.426;6.968;2022-12-05T15:10:23;14.30;42.20
76757;DHT22;65696;51.426;6.968;2022-12-05T15:12:49;14.30;42.10
76757;DHT22;65696;51.426;6.968;2022-12-05T15:15:18;14.30;42.10
76757;DHT22;65696;51.426;6.968;2022-12-05T15:17:45;14.30;42.20
76757;DHT22;65696;51.426;6.968;2022-12-05T15:20:13;14.30;42.10
76757;DHT22;65696;51.426;6.968;2022-12-05T15:22:41;14.30;42.20
76757;DHT22;65696;51.426;6.968;2022-12-05T15:27:54;14.30;42.40
76757;DHT22;65696;51.426;6.968;2022-12-05T15:30:20;14.30;42.50
76757;DHT22;65696;51.426;6.968;2022-12-05T15:32:45;14.30;42.20
76757;DHT22;65696;51.426;6.968;2022-12-05T15:35:11;14.30;42.30
76757;DHT22;65696;51.426;6.968;2022-12-05T15:37:39;14.30;42.40
76757;DHT22;65696;51.426;6.968;2022-12-05T15:40:10;14.30;42.30
76757;DHT22;65696;51.426;6.968;2022-12-05T15:42:36;14.40;42.10
76757;DHT22;65696;51.426;6.968;2022-12-05T15:45:14;14.30;42.20
76757;DHT22;65696;51.426;6.968;2022-12-05T15:47:41;14.40;42.50
76757;DHT22;65696;51.426;6.968;2022-12-05T15:50:10;14.30;42.30
76757;DHT22;65696;51.426;6.968;2022-12-05T15:52:37;14.30;42.20
76757;DHT22;65696;51.426;6.968;2022-12-05T15:55:04;14.30;42.10
76757;DHT22;65696;51.426;6.968;2022-12-05T15:57:34;14.40;41.90
76757;DHT22;65696;51.426;6.968;2022-12-05T16:00:03;14.40;42.00